createdAt,value
2023-05-02T00:00:10.884Z,9.9778
2023-05-02T00:01:12.871Z,9.9724
2023-05-02T00:02:15.022Z,9.9654
2023-05-02T00:03:17.503Z,9.9618
2023-05-02T00:04:19.790Z,9.9576
2023-05-02T00:05:22.228Z,9.9559
2023-05-02T00:06:24.284Z,9.9519
2023-05-02T00:07:26.283Z,9.9484
2023-05-02T00:08:28.319Z,9.9495
2023-05-02T00:09:30.349Z,9.9489
2023-05-02T00:10:32.357Z,9.9480
2023-05-02T00:11:34.395Z,9.9477
2023-05-02T00:12:36.425Z,9.9460
2023-05-02T00:13:38.468Z,9.9463
2023-05-02T00:14:40.477Z,9.9436
2023-05-02T00:15:42.480Z,9.9412
2023-05-02T00:16:44.518Z,9.9371
2023-05-02T00:17:46.535Z,9.9380
2023-05-02T00:18:48.537Z,9.9381
2023-05-02T00:19:50.587Z,9.9373
2023-05-02T00:20:52.608Z,9.9368
2023-05-02T00:21:54.631Z,9.9341
2023-05-02T00:22:56.681Z,9.9300
2023-05-02T00:23:58.707Z,9.9244
2023-05-02T00:25:00.755Z,9.9183
2023-05-02T00:26:02.793Z,9.9182
2023-05-02T00:27:04.829Z,9.9196
2023-05-02T00:28:06.869Z,9.9186
2023-05-02T00:29:08.906Z,9.9188
2023-05-02T00:30:11.710Z,9.9192
2023-05-02T00:31:13.805Z,9.9173
2023-05-02T00:32:15.787Z,9.9102
2023-05-02T00:33:17.841Z,9.9038
2023-05-02T00:34:19.854Z,9.8985
2023-05-02T00:35:21.875Z,9.8963
2023-05-02T00:36:23.895Z,9.8942
2023-05-02T00:37:25.912Z,9.8883
2023-05-02T00:38:27.987Z,9.8844
2023-05-02T00:39:30.048Z,9.8803
2023-05-02T00:40:32.092Z,9.8779
2023-05-02T00:41:34.126Z,9.8730
2023-05-02T00:42:36.456Z,9.8641
2023-05-02T00:43:38.650Z,9.8517
2023-05-02T00:44:40.710Z,9.8421
2023-05-02T00:45:42.763Z,9.8326
2023-05-02T00:46:44.841Z,9.8219
2023-05-02T00:47:46.889Z,9.8129
2023-05-02T00:48:48.933Z,9.8042
2023-05-02T00:49:50.956Z,9.7937
2023-05-02T00:50:52.978Z,9.7827
2023-05-02T00:51:55.052Z,9.7734
2023-05-02T00:52:57.045Z,9.7633
2023-05-02T00:53:59.063Z,9.7531
2023-05-02T00:55:01.099Z,9.7463
2023-05-02T00:56:03.132Z,9.7399
2023-05-02T00:57:05.183Z,9.7356
2023-05-02T00:58:07.231Z,9.7307
2023-05-02T00:59:09.267Z,9.7215
2023-05-02T01:00:11.350Z,9.7088
2023-05-02T01:01:13.413Z,9.6915
2023-05-02T01:02:15.472Z,9.6740
2023-05-02T01:03:17.721Z,9.6594
2023-05-02T01:04:19.875Z,9.6496
2023-05-02T01:05:21.887Z,9.6413
2023-05-02T01:06:23.940Z,9.6304
2023-05-02T01:07:25.954Z,9.6173
2023-05-02T01:08:27.976Z,9.6054
2023-05-02T01:09:30.000Z,9.5921
2023-05-02T01:10:32.050Z,9.5735
2023-05-02T01:11:34.087Z,9.5478
2023-05-02T01:12:36.122Z,9.5162
2023-05-02T01:13:38.181Z,9.4921
2023-05-02T01:14:40.278Z,9.4740
2023-05-02T01:15:42.390Z,9.4522
2023-05-02T01:16:44.656Z,9.4251
2023-05-02T01:17:46.913Z,9.3958
2023-05-02T01:18:48.964Z,9.3682
2023-05-02T01:19:51.090Z,9.3423
2023-05-02T01:20:53.136Z,9.3151
2023-05-02T01:21:55.114Z,9.2840
2023-05-02T01:22:57.155Z,9.2507
2023-05-02T01:23:59.187Z,9.2164
2023-05-02T01:25:01.555Z,9.1798
2023-05-02T01:26:03.583Z,9.1612
2023-05-02T01:27:05.635Z,9.1498
2023-05-02T01:28:07.697Z,9.1365
2023-05-02T01:29:09.746Z,9.1203
2023-05-02T01:30:11.761Z,9.1009
2023-05-02T01:31:13.807Z,9.0783
2023-05-02T01:32:15.820Z,9.0616
2023-05-02T01:33:17.879Z,9.0437
2023-05-02T01:34:19.927Z,9.0321
2023-05-02T01:35:21.975Z,9.0229
2023-05-02T01:36:23.982Z,9.0211
2023-05-02T01:37:26.002Z,9.0223
2023-05-02T01:38:28.010Z,9.0282
2023-05-02T01:39:30.053Z,9.0310
2023-05-02T01:40:32.126Z,9.0337
2023-05-02T01:41:34.167Z,9.0360
2023-05-02T01:42:36.910Z,9.0394
2023-05-02T01:43:38.972Z,9.0475
2023-05-02T01:44:40.994Z,9.0535
2023-05-02T01:45:43.001Z,9.0595
2023-05-02T01:46:45.060Z,9.0645
2023-05-02T01:47:47.140Z,9.0685
2023-05-02T01:48:49.143Z,9.0718
2023-05-02T01:49:51.158Z,9.0737
2023-05-02T01:50:53.245Z,9.0751
2023-05-02T01:51:55.239Z,9.0711
2023-05-02T01:52:57.260Z,9.0697
2023-05-02T01:53:59.307Z,9.0712
2023-05-02T01:55:01.336Z,9.0695
2023-05-02T01:56:03.381Z,9.0638
2023-05-02T01:57:05.406Z,9.0510
2023-05-02T01:58:07.438Z,9.0338
2023-05-02T01:59:09.441Z,9.0167
2023-05-02T02:00:11.470Z,8.9990
2023-05-02T02:01:13.517Z,8.9810
2023-05-02T02:02:15.531Z,8.9610
2023-05-02T02:03:17.635Z,8.9455
2023-05-02T02:04:19.752Z,8.9366
2023-05-02T02:05:21.602Z,8.9317
2023-05-02T02:06:23.672Z,8.9292
2023-05-02T02:07:25.715Z,8.9266
2023-05-02T02:08:27.672Z,8.9203
2023-05-02T02:09:29.704Z,8.9145
2023-05-02T02:10:31.725Z,8.9103
2023-05-02T02:11:33.716Z,8.9083
2023-05-02T02:12:36.072Z,8.9032
2023-05-02T02:13:38.106Z,8.9009
2023-05-02T02:14:40.134Z,8.9026
2023-05-02T02:15:42.165Z,8.9042
2023-05-02T02:16:44.246Z,8.9038
2023-05-02T02:17:46.428Z,8.9014
2023-05-02T02:18:48.468Z,8.8958
2023-05-02T02:19:50.530Z,8.8915
2023-05-02T02:20:52.552Z,8.8899
2023-05-02T02:21:54.601Z,8.8878
2023-05-02T02:22:56.630Z,8.8864
2023-05-02T02:23:58.661Z,8.8939
2023-05-02T02:25:00.705Z,8.9038
2023-05-02T02:26:02.785Z,8.9111
2023-05-02T02:27:04.843Z,8.9137
2023-05-02T02:28:06.871Z,8.9123
2023-05-02T02:29:08.865Z,8.9132
2023-05-02T02:30:11.238Z,8.9162
2023-05-02T02:31:13.331Z,8.9211
2023-05-02T02:32:15.359Z,8.9278
2023-05-02T02:33:17.376Z,8.9356
2023-05-02T02:34:19.440Z,8.9440
2023-05-02T02:35:21.693Z,8.9492
2023-05-02T02:36:23.708Z,8.9536
2023-05-02T02:37:25.752Z,8.9576
2023-05-02T02:38:27.761Z,8.9595
2023-05-02T02:39:29.790Z,8.9586
2023-05-02T02:40:31.845Z,8.9596
2023-05-02T02:41:33.880Z,8.9593
2023-05-02T02:42:35.926Z,8.9589
2023-05-02T02:43:37.931Z,8.9593
2023-05-02T02:44:40.213Z,8.9547
2023-05-02T02:45:42.242Z,8.9500
2023-05-02T02:46:44.359Z,8.9456
2023-05-02T02:47:46.430Z,8.9404
2023-05-02T02:48:48.396Z,8.9391
2023-05-02T02:49:50.444Z,8.9402
2023-05-02T02:50:52.444Z,8.9418
2023-05-02T02:51:54.451Z,8.9451
2023-05-02T02:52:56.536Z,8.9431
2023-05-02T02:53:58.568Z,8.9384
2023-05-02T02:55:00.628Z,8.9339
2023-05-02T02:56:02.617Z,8.9294
2023-05-02T02:57:04.652Z,8.9242
2023-05-02T02:58:06.664Z,8.9225
2023-05-02T02:59:08.702Z,8.9185
2023-05-02T03:00:10.738Z,8.9165
2023-05-02T03:01:12.766Z,8.9150
2023-05-02T03:02:14.772Z,8.9166
2023-05-02T03:03:16.885Z,8.9123
2023-05-02T03:04:18.940Z,8.9105
2023-05-02T03:05:19.070Z,8.9082
2023-05-02T03:06:21.227Z,8.9054
2023-05-02T03:07:23.268Z,8.9020
2023-05-02T03:08:25.302Z,8.8973
2023-05-02T03:09:27.371Z,8.8969
2023-05-02T03:10:29.367Z,8.8954
2023-05-02T03:11:31.394Z,8.8977
2023-05-02T03:12:33.429Z,8.9003
2023-05-02T03:13:35.421Z,8.9003
2023-05-02T03:14:37.455Z,8.9046
2023-05-02T03:15:40.005Z,8.9099
2023-05-02T03:16:42.115Z,8.9137
2023-05-02T03:17:44.361Z,8.9147
2023-05-02T03:18:46.383Z,8.9138
2023-05-02T03:19:48.518Z,8.9137
2023-05-02T03:20:50.513Z,8.9153
2023-05-02T03:21:52.551Z,8.9145
2023-05-02T03:22:54.607Z,8.9102
2023-05-02T03:23:56.629Z,8.9084
2023-05-02T03:24:58.661Z,8.9072
2023-05-02T03:26:00.654Z,8.9046
2023-05-02T03:27:02.658Z,8.9026
2023-05-02T03:28:04.718Z,8.8984
2023-05-02T03:29:06.734Z,8.8952
2023-05-02T03:30:08.751Z,8.8945
2023-05-02T03:31:10.787Z,8.8980
2023-05-02T03:32:13.136Z,8.9029
2023-05-02T03:33:15.426Z,8.9077
2023-05-02T03:34:17.411Z,8.9118
2023-05-02T03:35:19.672Z,8.9139
2023-05-02T03:36:21.691Z,8.9177
2023-05-02T03:37:23.740Z,8.9218
2023-05-02T03:38:25.776Z,8.9263
2023-05-02T03:39:27.799Z,8.9286
2023-05-02T03:40:29.829Z,8.9344
2023-05-02T03:41:31.913Z,8.9387
2023-05-02T03:42:33.958Z,8.9404
2023-05-02T03:43:36.045Z,8.9477
2023-05-02T03:44:38.025Z,8.9555
2023-05-02T03:45:40.041Z,8.9623
2023-05-02T03:46:42.098Z,8.9680
2023-05-02T03:47:44.434Z,8.9740
2023-05-02T03:48:46.451Z,8.9751
2023-05-02T03:49:48.505Z,8.9777
2023-05-02T03:50:50.548Z,8.9845
2023-05-02T03:51:52.571Z,8.9877
2023-05-02T03:52:54.666Z,8.9920
2023-05-02T03:53:56.707Z,8.9971
2023-05-02T03:54:58.757Z,9.0025
2023-05-02T03:56:00.797Z,9.0028
2023-05-02T03:57:02.841Z,8.9989
2023-05-02T03:58:04.873Z,8.9946
2023-05-02T03:59:06.906Z,8.9876
2023-05-02T04:00:07.062Z,8.9861
2023-05-02T04:01:09.085Z,8.9850
2023-05-02T04:02:11.152Z,8.9866
2023-05-02T04:03:13.263Z,8.9903
2023-05-02T04:04:15.310Z,8.9886
2023-05-02T04:05:17.344Z,8.9910
2023-05-02T04:06:19.441Z,8.9920
2023-05-02T04:07:21.459Z,8.9898
2023-05-02T04:08:23.471Z,8.9817
2023-05-02T04:09:25.645Z,8.9709
2023-05-02T04:10:27.720Z,8.9606
2023-05-02T04:11:29.751Z,8.9554
2023-05-02T04:12:31.835Z,8.9537
2023-05-02T04:13:33.856Z,8.9483
2023-05-02T04:14:35.881Z,8.9472
2023-05-02T04:15:37.931Z,8.9487
2023-05-02T04:16:39.960Z,8.9476
2023-05-02T04:17:42.009Z,8.9484
2023-05-02T04:18:44.035Z,8.9505
2023-05-02T04:19:46.116Z,8.9497
2023-05-02T04:20:48.148Z,8.9457
2023-05-02T04:21:50.212Z,8.9426
2023-05-02T04:22:50.413Z,8.9432
2023-05-02T04:23:52.443Z,8.9461
2023-05-02T04:24:54.505Z,8.9511
2023-05-02T04:25:56.540Z,8.9551
2023-05-02T04:26:58.590Z,8.9628
2023-05-02T04:28:00.606Z,8.9661
2023-05-02T04:29:02.630Z,8.9672
2023-05-02T04:30:04.667Z,8.9664
2023-05-02T04:31:06.740Z,8.9665
2023-05-02T04:32:08.732Z,8.9722
2023-05-02T04:33:10.832Z,8.9789
2023-05-02T04:34:12.822Z,8.9832
2023-05-02T04:35:14.852Z,8.9844
2023-05-02T04:36:16.880Z,8.9843
2023-05-02T04:37:18.948Z,8.9823
2023-05-02T04:38:21.048Z,8.9817
2023-05-02T04:39:23.158Z,8.9825
2023-05-02T04:40:25.171Z,8.9813
2023-05-02T04:41:27.206Z,8.9786
2023-05-02T04:42:29.219Z,8.9762
2023-05-02T04:43:31.249Z,8.9763
2023-05-02T04:44:33.273Z,8.9759
2023-05-02T04:45:35.299Z,8.9758
2023-05-02T04:46:37.384Z,8.9738
2023-05-02T04:47:39.469Z,8.9729
2023-05-02T04:48:41.491Z,8.9695
2023-05-02T04:49:43.518Z,8.9670
2023-05-02T04:50:45.583Z,8.9616
2023-05-02T04:51:47.579Z,8.9565
2023-05-02T04:52:49.614Z,8.9529
2023-05-02T04:53:51.712Z,8.9514
2023-05-02T04:54:53.778Z,8.9494
2023-05-02T04:55:55.884Z,8.9510
2023-05-02T04:56:57.898Z,8.9517
2023-05-02T04:57:59.933Z,8.9597
2023-05-02T04:59:02.004Z,8.9704
2023-05-02T05:00:04.289Z,8.9779
2023-05-02T05:01:06.288Z,8.9863
2023-05-02T05:02:08.481Z,8.9937
2023-05-02T05:03:10.740Z,9.0011
2023-05-02T05:04:12.841Z,9.0081
2023-05-02T05:05:14.980Z,9.0150
2023-05-02T05:06:17.090Z,9.0228
2023-05-02T05:07:19.098Z,9.0403
2023-05-02T05:08:21.131Z,9.0670
2023-05-02T05:09:23.169Z,9.1051
2023-05-02T05:10:25.215Z,9.1472
2023-05-02T05:11:27.257Z,9.1931
2023-05-02T05:12:29.284Z,9.2436
2023-05-02T05:13:31.324Z,9.2877
2023-05-02T05:14:33.354Z,9.3366
2023-05-02T05:15:35.451Z,9.3860
2023-05-02T05:16:37.561Z,9.4436
2023-05-02T05:17:39.737Z,9.4970
2023-05-02T05:18:41.752Z,9.5539
2023-05-02T05:19:43.774Z,9.6100
2023-05-02T05:20:46.119Z,9.6671
2023-05-02T05:21:48.378Z,9.7279
2023-05-02T05:22:50.460Z,9.7881
2023-05-02T05:23:52.480Z,9.8474
2023-05-02T05:24:54.504Z,9.9129
2023-05-02T05:25:56.530Z,9.9716
2023-05-02T05:26:58.560Z,10.0265
2023-05-02T05:28:00.604Z,10.0803
2023-05-02T05:29:02.659Z,10.1258
2023-05-02T05:30:04.707Z,10.1663
2023-05-02T05:31:06.780Z,10.2068
2023-05-02T05:32:08.812Z,10.2435
2023-05-02T05:33:11.266Z,10.2779
2023-05-02T05:34:13.371Z,10.3070
2023-05-02T05:35:15.429Z,10.3300
2023-05-02T05:36:17.484Z,10.3488
2023-05-02T05:37:19.563Z,10.3675
2023-05-02T05:38:21.612Z,10.3842
2023-05-02T05:39:23.664Z,10.4019
2023-05-02T05:40:25.715Z,10.4203
2023-05-02T05:41:27.769Z,10.4338
2023-05-02T05:42:29.834Z,10.4435
2023-05-02T05:43:31.906Z,10.4475
2023-05-02T05:44:33.989Z,10.4501
2023-05-02T05:45:36.084Z,10.4485
2023-05-02T05:46:38.249Z,10.4461
2023-05-02T05:47:40.432Z,10.4471
2023-05-02T05:48:42.597Z,10.4521
2023-05-02T05:49:44.638Z,10.4600
2023-05-02T05:50:46.715Z,10.4678
2023-05-02T05:51:48.795Z,10.4741
2023-05-02T05:52:50.867Z,10.4782
2023-05-02T05:53:52.943Z,10.4792
2023-05-02T05:54:55.029Z,10.4770
2023-05-02T05:55:57.095Z,10.4744
2023-05-02T05:56:59.177Z,10.4741
2023-05-02T05:58:01.253Z,10.4751
2023-05-02T05:59:03.341Z,10.4771
2023-05-02T06:00:05.455Z,10.4823
2023-05-02T06:01:07.770Z,10.4914
2023-05-02T06:02:09.864Z,10.5056
2023-05-02T06:03:12.326Z,10.5279
2023-05-02T06:04:14.553Z,10.5522
2023-05-02T06:05:16.641Z,10.5890
2023-05-02T06:06:18.701Z,10.6295
2023-05-02T06:07:20.762Z,10.6711
2023-05-02T06:08:23.132Z,10.7181
2023-05-02T06:09:25.181Z,10.7626
2023-05-02T06:10:27.234Z,10.8003
2023-05-02T06:11:29.329Z,10.8385
2023-05-02T06:12:31.365Z,10.8779
2023-05-02T06:13:33.418Z,10.9241
2023-05-02T06:14:35.569Z,10.9730
2023-05-02T06:15:37.662Z,11.0355
2023-05-02T06:16:39.773Z,11.1050
2023-05-02T06:17:41.798Z,11.1833
2023-05-02T06:18:43.860Z,11.2654
2023-05-02T06:19:45.914Z,11.3450
2023-05-02T06:20:47.973Z,11.4239
2023-05-02T06:21:50.035Z,11.4956
2023-05-02T06:22:52.119Z,11.5655
2023-05-02T06:23:54.246Z,11.6260
2023-05-02T06:24:56.284Z,11.6819
2023-05-02T06:25:58.356Z,11.7402
2023-05-02T06:27:00.428Z,11.7955
2023-05-02T06:28:02.487Z,11.8473
2023-05-02T06:29:04.553Z,11.8894
2023-05-02T06:30:06.672Z,11.9247
2023-05-02T06:31:08.758Z,11.9640
2023-05-02T06:32:10.848Z,12.0044
2023-05-02T06:33:12.951Z,12.0352
2023-05-02T06:34:15.030Z,12.0503
2023-05-02T06:35:17.110Z,12.0655
2023-05-02T06:36:19.194Z,12.0890
2023-05-02T06:37:21.243Z,12.1163
2023-05-02T06:38:23.320Z,12.1365
2023-05-02T06:39:25.397Z,12.1434
2023-05-02T06:40:27.536Z,12.1458
2023-05-02T06:41:29.608Z,12.1529
2023-05-02T06:42:31.665Z,12.1720
2023-05-02T06:43:33.732Z,12.2059
2023-05-02T06:44:35.794Z,12.2584
2023-05-02T06:45:37.865Z,12.3344
2023-05-02T06:46:39.987Z,12.4181
2023-05-02T06:47:42.114Z,12.5227
2023-05-02T06:48:44.137Z,12.6349
2023-05-02T06:49:46.216Z,12.7540
2023-05-02T06:50:48.327Z,12.8691
2023-05-02T06:51:50.402Z,12.9805
2023-05-02T06:52:52.460Z,13.0976
2023-05-02T06:53:54.552Z,13.2056
2023-05-02T06:54:56.598Z,13.3030
2023-05-02T06:55:58.700Z,13.3838
2023-05-02T06:57:00.761Z,13.4571
2023-05-02T06:58:02.807Z,13.5263
2023-05-02T06:59:04.858Z,13.5930
2023-05-02T07:00:06.980Z,13.6729
2023-05-02T07:01:09.190Z,13.7608
2023-05-02T07:02:11.274Z,13.8592
2023-05-02T07:03:13.383Z,13.9706
2023-05-02T07:04:15.484Z,14.0755
2023-05-02T07:05:17.552Z,14.1576
2023-05-02T07:06:19.648Z,14.2459
2023-05-02T07:07:21.732Z,14.3421
2023-05-02T07:08:23.858Z,14.4280
2023-05-02T07:09:25.982Z,14.5151
2023-05-02T07:10:28.038Z,14.6112
2023-05-02T07:11:30.060Z,14.7338
2023-05-02T07:12:32.170Z,14.8519
2023-05-02T07:13:34.205Z,14.9730
2023-05-02T07:14:36.263Z,15.0883
2023-05-02T07:15:38.331Z,15.1873
2023-05-02T07:16:40.514Z,15.2743
2023-05-02T07:17:42.644Z,15.3359
2023-05-02T07:18:44.701Z,15.3759
2023-05-02T07:19:46.770Z,15.4319
2023-05-02T07:20:48.834Z,15.4939
2023-05-02T07:21:50.894Z,15.5453
2023-05-02T07:22:52.927Z,15.5941
2023-05-02T07:23:54.975Z,15.6492
2023-05-02T07:24:57.178Z,15.6965
2023-05-02T07:25:59.219Z,15.7419
2023-05-02T07:27:01.706Z,15.7714
2023-05-02T07:28:03.803Z,15.8187
2023-05-02T07:29:05.888Z,15.8925
2023-05-02T07:30:08.098Z,15.9868
2023-05-02T07:31:10.183Z,16.0884
2023-05-02T07:32:12.284Z,16.1993
2023-05-02T07:33:14.331Z,16.3172
2023-05-02T07:34:16.503Z,16.4020
2023-05-02T07:35:18.555Z,16.4834
2023-05-02T07:36:20.595Z,16.6406
2023-05-02T07:37:22.705Z,16.8079
2023-05-02T07:38:24.796Z,16.9306
2023-05-02T07:39:26.832Z,17.0012
2023-05-02T07:40:28.900Z,17.0667
2023-05-02T07:41:30.958Z,17.1609
2023-05-02T07:42:33.038Z,17.2546
2023-05-02T07:43:35.100Z,17.3334
2023-05-02T07:44:37.181Z,17.4034
2023-05-02T07:45:39.243Z,17.4571
2023-05-02T07:46:41.410Z,17.4729
2023-05-02T07:47:43.579Z,17.4865
2023-05-02T07:48:45.700Z,17.5470
2023-05-02T07:49:47.759Z,17.5528
2023-05-02T07:50:49.856Z,17.5105
2023-05-02T07:51:51.919Z,17.4344
2023-05-02T07:52:54.016Z,17.3341
2023-05-02T07:53:56.097Z,17.1966
2023-05-02T07:54:58.178Z,17.0667
2023-05-02T07:56:00.261Z,16.9410
2023-05-02T07:57:02.409Z,16.8284
2023-05-02T07:58:04.479Z,16.7243
2023-05-02T07:59:06.522Z,16.6292
2023-05-02T08:00:10.240Z,16.5363
2023-05-02T08:01:16.701Z,16.4580
2023-05-02T08:02:18.843Z,16.3958
2023-05-02T08:03:20.997Z,16.3754
2023-05-02T08:04:23.356Z,16.3840
2023-05-02T08:05:25.450Z,16.4143
2023-05-02T08:06:27.536Z,16.4595
2023-05-02T08:07:29.638Z,16.4989
2023-05-02T08:08:31.733Z,16.5482
2023-05-02T08:09:33.805Z,16.6023
2023-05-02T08:10:35.898Z,16.6481
2023-05-02T08:11:37.989Z,16.7051
2023-05-02T08:12:40.105Z,16.7643
2023-05-02T08:13:42.171Z,16.8288
2023-05-02T08:14:44.252Z,16.8818
2023-05-02T08:15:46.399Z,16.9225
2023-05-02T08:16:48.541Z,16.9591
2023-05-02T08:17:50.906Z,16.9915
2023-05-02T08:18:52.985Z,17.0246
2023-05-02T08:19:55.076Z,17.0660
2023-05-02T08:20:57.137Z,17.1229
2023-05-02T08:21:59.265Z,17.1889
2023-05-02T08:23:01.615Z,17.2701
2023-05-02T08:25:04.262Z,17.3565
2023-05-02T08:25:04.262Z,17.4623
2023-05-02T08:26:06.351Z,17.5507
2023-05-02T08:27:08.424Z,17.6474
2023-05-02T08:28:10.522Z,17.7247
2023-05-02T08:29:12.637Z,17.7934
2023-05-02T08:30:14.784Z,17.8487
2023-05-02T08:31:16.938Z,17.8844
2023-05-02T08:32:18.964Z,17.9041
2023-05-02T08:33:21.127Z,17.8991
2023-05-02T08:34:23.158Z,17.8808
2023-05-02T08:35:25.241Z,17.8752
2023-05-02T08:36:27.294Z,17.8909
2023-05-02T08:37:29.384Z,17.9247
2023-05-02T08:38:31.449Z,17.9873
2023-05-02T08:39:33.501Z,18.0686
2023-05-02T08:40:42.174Z,18.1527
2023-05-02T08:41:36.283Z,18.2560
2023-05-02T08:42:38.362Z,18.3556
2023-05-02T08:43:40.440Z,18.4581
2023-05-02T08:44:42.521Z,18.5768
2023-05-02T08:45:44.717Z,18.7027
2023-05-02T08:46:46.852Z,18.8239
2023-05-02T08:47:49.258Z,18.9656
2023-05-02T08:48:51.326Z,19.0923
2023-05-02T08:49:53.479Z,19.1753
2023-05-02T08:50:55.544Z,19.2286
2023-05-02T08:51:57.663Z,19.3004
2023-05-02T08:52:59.736Z,19.3872
2023-05-02T08:54:01.794Z,19.4940
2023-05-02T08:55:04.065Z,19.6030
2023-05-02T08:56:06.452Z,19.6743
2023-05-02T08:57:08.766Z,19.6933
2023-05-02T08:58:10.867Z,19.7552
2023-05-02T08:59:12.972Z,20.0192
2023-05-02T09:00:15.063Z,20.3102
2023-05-02T09:01:17.188Z,20.5553
2023-05-02T09:02:19.261Z,20.7225
2023-05-02T09:03:23.376Z,20.8336
2023-05-02T09:04:22.240Z,20.9552
2023-05-02T09:05:24.339Z,21.1376
2023-05-02T09:06:26.480Z,21.4171
2023-05-02T09:07:28.566Z,21.6753
2023-05-02T09:08:30.632Z,21.8542
2023-05-02T09:09:39.778Z,21.9684
2023-05-02T09:10:34.553Z,22.0173
2023-05-02T09:11:36.391Z,22.0591
2023-05-02T09:12:38.443Z,22.0956
2023-05-02T09:13:40.524Z,22.0925
2023-05-02T09:15:45.938Z,22.0556
2023-05-02T09:15:45.938Z,21.9923
2023-05-02T09:16:48.067Z,21.9512
2023-05-02T09:17:50.137Z,21.8885
2023-05-02T09:18:52.180Z,21.8632
2023-05-02T09:19:54.181Z,21.8917
2023-05-02T09:20:56.238Z,21.9627
2023-05-02T09:21:58.314Z,22.0830
2023-05-02T09:23:03.875Z,22.2584
2023-05-02T09:24:05.934Z,22.4016
2023-05-02T09:25:08.099Z,22.5673
2023-05-02T09:26:10.168Z,22.7721
2023-05-02T09:27:12.284Z,22.9859
2023-05-02T09:28:14.309Z,23.2370
2023-05-02T09:29:23.894Z,23.4353
2023-05-02T09:30:25.983Z,23.7423
2023-05-02T09:31:49.792Z,24.0608
2023-05-02T09:32:34.384Z,24.2891
2023-05-02T09:33:36.571Z,24.5255
2023-05-02T09:34:38.620Z,24.7398
2023-05-02T09:35:40.719Z,25.0668
2023-05-02T09:36:42.792Z,25.4023
2023-05-02T09:37:44.854Z,25.8360
2023-05-02T09:38:46.932Z,26.0500
2023-05-02T09:39:48.915Z,25.9969
2023-05-02T09:40:50.959Z,25.8360
2023-05-02T09:41:53.031Z,25.6166
2023-05-02T09:42:54.939Z,25.3769
2023-05-02T09:43:57.023Z,25.1302
2023-05-02T09:44:59.276Z,24.8922
2023-05-02T09:46:01.652Z,24.6457
2023-05-02T09:47:03.695Z,24.4068
2023-05-02T09:48:05.837Z,24.1739
2023-05-02T09:49:07.883Z,24.0478
2023-05-02T09:50:09.939Z,24.1721
2023-05-02T09:51:12.030Z,24.3529
2023-05-02T09:52:14.131Z,24.4684
2023-05-02T09:53:16.275Z,24.7410
2023-05-02T09:54:18.361Z,25.1168
2023-05-02T09:55:20.716Z,25.5240
2023-05-02T09:56:23.966Z,25.9378
2023-05-02T09:57:23.243Z,26.2445
2023-05-02T09:58:25.371Z,26.2480
2023-05-02T09:59:27.451Z,26.1725
2023-05-02T10:00:29.540Z,26.2396
2023-05-02T10:01:31.634Z,26.5209
2023-05-02T10:03:33.825Z,26.9087
2023-05-02T10:03:33.825Z,27.3052
2023-05-02T10:04:36.011Z,27.6343
2023-05-02T10:05:38.096Z,28.0441
2023-05-02T10:06:40.303Z,28.4608
2023-05-02T10:07:42.401Z,28.8183
2023-05-02T10:08:44.467Z,29.0320
2023-05-02T10:09:46.605Z,29.1475
2023-05-02T10:10:48.959Z,29.2806
2023-05-02T10:11:51.032Z,29.4879
2023-05-02T10:12:53.132Z,29.6087
2023-05-02T10:14:58.904Z,29.3657
2023-05-02T10:14:58.904Z,29.4966
2023-05-02T10:16:01.039Z,29.3958
2023-05-02T10:17:03.164Z,29.3459
2023-05-02T10:19:08.523Z,29.2290
2023-05-02T10:19:08.523Z,29.1873
2023-05-02T10:20:10.595Z,29.2387
2023-05-02T10:21:12.639Z,29.1540
2023-05-02T10:22:14.721Z,28.9916
2023-05-02T10:23:16.865Z,28.8727
2023-05-02T10:24:18.930Z,28.6500
2023-05-02T10:25:21.002Z,28.3543
2023-05-02T10:26:23.098Z,28.0033
2023-05-02T10:27:25.155Z,27.6436
2023-05-02T10:28:27.252Z,27.2866
2023-05-02T10:29:29.311Z,26.9466
2023-05-02T10:30:30.275Z,26.5423
2023-05-02T10:31:32.412Z,26.1610
2023-05-02T10:32:34.888Z,25.7853
2023-05-02T10:33:36.957Z,25.4728
2023-05-02T10:34:39.104Z,25.1998
2023-05-02T10:35:39.467Z,24.9455
2023-05-02T10:37:45.048Z,24.7299
2023-05-02T10:37:45.048Z,24.4138
2023-05-02T10:38:47.060Z,24.1957
2023-05-02T10:39:49.144Z,23.9731
2023-05-02T10:40:51.171Z,23.7815
2023-05-02T10:41:53.235Z,23.6076
2023-05-02T10:42:55.299Z,23.4516
2023-05-02T10:43:57.132Z,23.3213
2023-05-02T10:44:59.467Z,23.2103
2023-05-02T10:46:01.657Z,23.1118
2023-05-02T10:47:03.790Z,23.0018
2023-05-02T10:48:04.390Z,22.8846
2023-05-02T10:49:06.463Z,22.7745
2023-05-02T10:50:08.589Z,22.6445
2023-05-02T10:51:10.640Z,22.5159
2023-05-02T10:52:12.743Z,22.4049
2023-05-02T10:53:14.806Z,22.3127
2023-05-02T10:54:16.781Z,22.2451
2023-05-02T10:55:18.841Z,22.1796
2023-05-02T10:56:20.892Z,22.1314
2023-05-02T10:57:22.989Z,22.0951
2023-05-02T10:58:25.098Z,22.0820
2023-05-02T10:59:27.146Z,22.0810
2023-05-02T11:00:27.205Z,22.0720
2023-05-02T11:01:29.440Z,22.0575
2023-05-02T11:02:31.751Z,22.0479
2023-05-02T11:03:33.909Z,22.0382
2023-05-02T11:04:35.778Z,22.0149
2023-05-02T11:05:37.840Z,21.9935
2023-05-02T11:06:40.238Z,21.9868
2023-05-02T11:07:42.274Z,21.9885
2023-05-02T11:08:44.350Z,21.9818
2023-05-02T11:09:46.671Z,21.9770
2023-05-02T11:10:48.749Z,21.9678
2023-05-02T11:11:58.325Z,21.9524
2023-05-02T11:12:53.458Z,21.9180
2023-05-02T11:13:55.523Z,21.8945
2023-05-02T11:14:57.640Z,21.9070
2023-05-02T11:16:00.232Z,22.0431
2023-05-02T11:17:02.287Z,22.2560
2023-05-02T11:18:12.124Z,22.4574
2023-05-02T11:19:06.956Z,22.7103
2023-05-02T11:20:09.048Z,22.9978
2023-05-02T11:21:11.115Z,23.2718
2023-05-02T11:22:13.248Z,23.4632
2023-05-02T11:23:15.279Z,23.5766
2023-05-02T11:24:17.382Z,23.6281
2023-05-02T11:25:19.465Z,23.7649
2023-05-02T11:26:21.557Z,24.0572
2023-05-02T11:27:23.655Z,24.3622
2023-05-02T11:28:25.731Z,24.4923
2023-05-02T11:29:27.828Z,24.4090
2023-05-02T11:30:29.972Z,24.2305
2023-05-02T11:31:32.092Z,24.1839
2023-05-02T11:32:34.419Z,24.4879
2023-05-02T11:33:36.509Z,24.8758
2023-05-02T11:34:38.598Z,25.0815
2023-05-02T11:35:44.563Z,25.0295
2023-05-02T11:36:54.309Z,24.8378
2023-05-02T11:37:56.386Z,24.6159
2023-05-02T11:38:58.488Z,24.4628
2023-05-02T11:40:00.588Z,24.4303
2023-05-02T11:41:02.689Z,24.6214
2023-05-02T11:42:04.774Z,25.0481
2023-05-02T11:43:06.810Z,25.6458
2023-05-02T11:44:08.951Z,26.2273
2023-05-02T11:45:11.010Z,26.4599
2023-05-02T11:46:13.108Z,26.4269
2023-05-02T11:47:15.143Z,26.3687
2023-05-02T11:48:17.249Z,26.6573
2023-05-02T11:49:19.326Z,27.1405
2023-05-02T11:50:21.420Z,27.7035
2023-05-02T11:51:23.509Z,28.2765
2023-05-02T11:52:26.242Z,28.8413
2023-05-02T11:53:28.283Z,29.4490
2023-05-02T11:54:30.618Z,30.0269
2023-05-02T11:55:36.608Z,30.6129
2023-05-02T11:56:38.679Z,31.0933
2023-05-02T11:58:40.997Z,31.4241
2023-05-02T11:58:40.997Z,31.4830
2023-05-02T12:00:43.600Z,31.3214
2023-05-02T12:00:43.600Z,30.9729
2023-05-02T12:01:45.678Z,30.6784
2023-05-02T12:02:47.812Z,30.5414
2023-05-02T12:03:50.007Z,30.6966
2023-05-02T12:04:52.127Z,30.8872
2023-05-02T12:05:54.287Z,30.9570
2023-05-02T12:06:56.445Z,31.2265
2023-05-02T12:07:58.585Z,31.5937
2023-05-02T12:09:00.682Z,31.8456
2023-05-02T12:10:03.069Z,32.0104
2023-05-02T12:11:05.192Z,32.0048
2023-05-02T12:13:10.168Z,32.0886
2023-05-02T12:13:10.168Z,32.0945
2023-05-02T12:14:10.288Z,32.1058
2023-05-02T12:15:12.449Z,32.3033
2023-05-02T12:16:14.671Z,32.5015
2023-05-02T12:17:16.838Z,32.6494
2023-05-02T12:18:20.760Z,32.5714
2023-05-02T12:19:20.486Z,32.2489
2023-05-02T12:20:22.609Z,31.8637
2023-05-02T12:21:24.726Z,31.4699
2023-05-02T12:22:26.857Z,31.1012
2023-05-02T12:23:28.956Z,30.6682
2023-05-02T12:24:31.100Z,30.2084
2023-05-02T12:25:33.194Z,29.7578
2023-05-02T12:26:35.313Z,29.3153
2023-05-02T12:27:57.419Z,28.8388
2023-05-02T12:28:52.267Z,28.0923
2023-05-02T12:29:54.378Z,27.4709
2023-05-02T12:30:56.511Z,26.8089
2023-05-02T12:31:58.725Z,26.0986
2023-05-02T12:33:00.898Z,25.4378
2023-05-02T12:34:03.009Z,24.8505
2023-05-02T12:35:05.120Z,24.2837
2023-05-02T12:36:07.200Z,23.7119
2023-05-02T12:37:09.363Z,23.1684
2023-05-02T12:38:11.844Z,22.7048
2023-05-02T12:39:13.725Z,22.2848
2023-05-02T12:40:15.829Z,21.8469
2023-05-02T12:41:17.950Z,21.4238